Whitehall, West Virginia
Current Conditions -  °F | °C
As of 9:27 PM on Saturday 20 Dec 2014 (Local Time) from KCKB Reporting Station
Overcast Overcast  
Wind Chill: 31°   Ceiling: 2500
Heat Index: 31°   Visibility: 10mi
Dew Point: 24°   Wind: 3mph
Humidity: 76%   Direction: 350°N
Pressure: 30.25"   Gusts: NA
Location:  39.485°N, 80.1426°W
Report Text: KCKB 210227Z 35003KT 10SM BKN025 BKN039 OVC055 M01/M04 A3025 RMK AO2 T10061044
Loading
Personal Weather Stations






























Interactive Weather Map New forecast layout! Learn more

10-Day Weather Forecast

Advertisements
Track Severe Weather on mobile